(°C)
16°
16°
14°
13°
12°
11°
10°
(°C)
12°
12°
11°
10°
S
SSW
S
S
S
S
S
(km/h)
15-24
15-24
13-22
10-19
9-17
8-16
8-15
(mm)
0
0
0
0
0
0
0
(%)
0
0
0
0
0
0
0

Sonnenhöhe

/ 23.7°
sun-icon
UV 2
07:14
17:57
Zunehmender Mond (167°)
17:49
05:38

METAR für Ivanka pri Dunaji (LZIB)

Zeit Bedingungen Temperatur/
Taupunkt
Wind Sichtweite Wetter Wolken Druck Änderung Roh
VFR 15°C / 8°C variable 2kt >10km - Clouds and Visibility OK 1026 No Significant change LZIB 191230Z VRB02KT CAVOK 15/08 Q1026 NOSIG
VFR 13°C / 7°C variable 2kt >10km - Clouds and Visibility OK 1027 No Significant change LZIB 191200Z VRB02KT CAVOK 13/07 Q1027 NOSIG
VFR 12°C / 7°C 60º variable 340º to 100º 4kt >10km - Clouds and Visibility OK 1027 No Significant change LZIB 191130Z 06004KT 340V100 CAVOK 12/07 Q1027 NOSIG
VFR 11°C / 7°C 40º variable 010º to 070º 7kt >10km - Clouds and Visibility OK 1028 No Significant change LZIB 191100Z 04007KT 010V070 CAVOK 11/07 Q1028 NOSIG
VFR 10°C / 6°C 20º 6kt >10km - Clouds and Visibility OK 1028 No Significant change LZIB 191030Z 02006KT CAVOK 10/06 Q1028 NOSIG
VFR 9°C / 6°C 50º 5kt >10km - Clouds and Visibility OK 1028 No Significant change LZIB 191000Z 05005KT CAVOK 09/06 Q1028 NOSIG
VFR 9°C / 6°C 30º 5kt >10km - Clouds and Visibility OK 1028 No Significant change LZIB 190930Z 03005KT CAVOK 09/06 Q1028 NOSIG
VFR 8°C / 6°C 40º 8kt >10km - Few Clouds 700ft 1028 No Significant change LZIB 190900Z 04008KT 9999 FEW007 08/06 Q1028 NOSIG
MVFR 7°C / 6°C 30º 7kt 7000m - Scattered Clouds 400ft 1028 No Significant change LZIB 190830Z 03007KT 7000 SCT004 07/06 Q1028 NOSIG
MVFR 6°C / 5°C 30º 6kt 5000m Mist Vertical Visibility of 0ft. 1028 No Significant change LZIB 190800Z 03006KT 5000 BR SCT003 06/05 Q1028 NOSIG
LIFR 6°C / 5°C 40º 6kt 5000m shallow Fog Mist Vertical Visibility of 0ft. 1028 Becoming: Few Clouds 500ft. LZIB 190730Z 04006KT 5000 MIFG BR BKN003 06/05 Q1028 BECMG FEW005
IFR 5°C / 5°C 40º 8kt 4200m shallow Fog Mist Vertical Visibility of 0ft. 1028 Temporary: Visibility 0300. Fog . LZIB 190700Z 04008KT 4200 MIFG BR SCT002 05/05 Q1028 TEMPO 0300 FG
MVFR 5°C / 4°C 30º 6kt 5000m shallow Fog Mist Vertical Visibility of 0ft. 1028 Temporary: Visibility 1200. patches Fog . Scattered Clouds 200ft. LZIB 190630Z 03006KT 5000 MIFG BR FEW009 05/04 Q1028 TEMPO 1200 BCFG SCT002
MVFR 4°C / 3°C 50º 5kt 6000m shallow Fog Vertical Visibility of 0ft. 1028 Temporary: Visibility 2500. Mist . Few Clouds 900ft. LZIB 190600Z 05005KT 6000 MIFG FEW009 04/03 Q1028 TEMPO 2500 BR FEW009
MVFR 3°C / 2°C 30º 6kt 7000m shallow Fog Vertical Visibility of 0ft. 1028 Temporary: Visibility 2200. patches Fog . Scattered Clouds 200ft. LZIB 190530Z 03006KT 7000 MIFG FEW009 03/02 Q1028 TEMPO 2200 BCFG SCT002
VFR 3°C / 2°C 30º 6kt >10km shallow Fog Vertical Visibility of 0ft. 1028 Temporary: Visibility 2200. patches Fog . Scattered Clouds 200ft. LZIB 190500Z 03006KT 9999 MIFG FEW010 03/02 Q1028 TEMPO 2200 BCFG SCT002
VFR 3°C / 2°C 40º 4kt >10km shallow Fog Vertical Visibility of 0ft. 1027 Temporary: Visibility 1200. patches Fog . Broken Clouds 200ft. LZIB 190430Z 04004KT 9999 MIFG NSC 03/02 Q1027 TEMPO 1200 BCFG BKN002
VFR 3°C / 3°C 360º 2kt >10km patches Fog Vertical Visibility of 0ft. 1028 Temporary: Visibility 1200. patches Fog . Broken Clouds 200ft. LZIB 190400Z 36002KT 9999 2500E BCFG NSC 03/03 Q1028 TEMPO 1200 BCFG BKN002
VFR 3°C / 2°C 70º 3kt >10km patches Fog Vertical Visibility of 0ft. 1028 - LZIB 190330Z 07003KT 9999 2400E BCFG NSC 03/02 Q1028
VFR 3°C / 2°C 90º 3kt >10km patches Fog Vertical Visibility of 0ft. 1028 - LZIB 190300Z 09003KT 9999 1800E BCFG NSC 03/02 Q1028
VFR 3°C / 2°C 80º 2kt >10km - Clouds and Visibility OK 1028 - LZIB 190230Z 08002KT CAVOK 03/02 Q1028
VFR 4°C / 3°C 10º 2kt >10km - Clouds and Visibility OK 1028 - LZIB 190200Z 01002KT CAVOK 04/03 Q1028
VFR 4°C / 3°C variable 0kt >10km - Clouds and Visibility OK 1028 - LZIB 190130Z 00000KT CAVOK 04/03 Q1028
VFR 4°C / 3°C 10º 5kt >10km - Clouds and Visibility OK 1028 - LZIB 190100Z 01005KT CAVOK 04/03 Q1028

VFR

15°C / 8°C

[Mehr]
Wind variable 2kt
Sichtweite >10km
Wetter -
Wolken Clouds and Visibility OK
Druck 1026
Änderung No Significant change
Roh LZIB 191230Z VRB02KT CAVOK 15/08 Q1026 NOSIG

VFR

13°C / 7°C

[Mehr]
Wind variable 2kt
Sichtweite >10km
Wetter -
Wolken Clouds and Visibility OK
Druck 1027
Änderung No Significant change
Roh LZIB 191200Z VRB02KT CAVOK 13/07 Q1027 NOSIG

VFR

12°C / 7°C

[Mehr]
Wind 60º variable 340º to 100º 4kt
Sichtweite >10km
Wetter -
Wolken Clouds and Visibility OK
Druck 1027
Änderung No Significant change
Roh LZIB 191130Z 06004KT 340V100 CAVOK 12/07 Q1027 NOSIG

VFR

11°C / 7°C

[Mehr]
Wind 40º variable 010º to 070º 7kt
Sichtweite >10km
Wetter -
Wolken Clouds and Visibility OK
Druck 1028
Änderung No Significant change
Roh LZIB 191100Z 04007KT 010V070 CAVOK 11/07 Q1028 NOSIG

VFR

10°C / 6°C

[Mehr]
Wind 20º 6kt
Sichtweite >10km
Wetter -
Wolken Clouds and Visibility OK
Druck 1028
Änderung No Significant change
Roh LZIB 191030Z 02006KT CAVOK 10/06 Q1028 NOSIG

VFR

9°C / 6°C

[Mehr]
Wind 50º 5kt
Sichtweite >10km
Wetter -
Wolken Clouds and Visibility OK
Druck 1028
Änderung No Significant change
Roh LZIB 191000Z 05005KT CAVOK 09/06 Q1028 NOSIG

VFR

9°C / 6°C

[Mehr]
Wind 30º 5kt
Sichtweite >10km
Wetter -
Wolken Clouds and Visibility OK
Druck 1028
Änderung No Significant change
Roh LZIB 190930Z 03005KT CAVOK 09/06 Q1028 NOSIG

VFR

8°C / 6°C

[Mehr]
Wind 40º 8kt
Sichtweite >10km
Wetter -
Wolken Few Clouds 700ft
Druck 1028
Änderung No Significant change
Roh LZIB 190900Z 04008KT 9999 FEW007 08/06 Q1028 NOSIG

MVFR

7°C / 6°C

[Mehr]
Wind 30º 7kt
Sichtweite 7000m
Wetter -
Wolken Scattered Clouds 400ft
Druck 1028
Änderung No Significant change
Roh LZIB 190830Z 03007KT 7000 SCT004 07/06 Q1028 NOSIG

MVFR

6°C / 5°C

[Mehr]
Wind 30º 6kt
Sichtweite 5000m
Wetter Mist
Wolken Vertical Visibility of 0ft.
Druck 1028
Änderung No Significant change
Roh LZIB 190800Z 03006KT 5000 BR SCT003 06/05 Q1028 NOSIG

LIFR

6°C / 5°C

[Mehr]
Wind 40º 6kt
Sichtweite 5000m
Wetter shallow Fog Mist
Wolken Vertical Visibility of 0ft.
Druck 1028
Änderung Becoming: Few Clouds 500ft.
Roh LZIB 190730Z 04006KT 5000 MIFG BR BKN003 06/05 Q1028 BECMG FEW005

IFR

5°C / 5°C

[Mehr]
Wind 40º 8kt
Sichtweite 4200m
Wetter shallow Fog Mist
Wolken Vertical Visibility of 0ft.
Druck 1028
Änderung Temporary: Visibility 0300. Fog .
Roh LZIB 190700Z 04008KT 4200 MIFG BR SCT002 05/05 Q1028 TEMPO 0300 FG

MVFR

5°C / 4°C

[Mehr]
Wind 30º 6kt
Sichtweite 5000m
Wetter shallow Fog Mist
Wolken Vertical Visibility of 0ft.
Druck 1028
Änderung Temporary: Visibility 1200. patches Fog . Scattered Clouds 200ft.
Roh LZIB 190630Z 03006KT 5000 MIFG BR FEW009 05/04 Q1028 TEMPO 1200 BCFG SCT002

MVFR

4°C / 3°C

[Mehr]
Wind 50º 5kt
Sichtweite 6000m
Wetter shallow Fog
Wolken Vertical Visibility of 0ft.
Druck 1028
Änderung Temporary: Visibility 2500. Mist . Few Clouds 900ft.
Roh LZIB 190600Z 05005KT 6000 MIFG FEW009 04/03 Q1028 TEMPO 2500 BR FEW009

MVFR

3°C / 2°C

[Mehr]
Wind 30º 6kt
Sichtweite 7000m
Wetter shallow Fog
Wolken Vertical Visibility of 0ft.
Druck 1028
Änderung Temporary: Visibility 2200. patches Fog . Scattered Clouds 200ft.
Roh LZIB 190530Z 03006KT 7000 MIFG FEW009 03/02 Q1028 TEMPO 2200 BCFG SCT002

VFR

3°C / 2°C

[Mehr]
Wind 30º 6kt
Sichtweite >10km
Wetter shallow Fog
Wolken Vertical Visibility of 0ft.
Druck 1028
Änderung Temporary: Visibility 2200. patches Fog . Scattered Clouds 200ft.
Roh LZIB 190500Z 03006KT 9999 MIFG FEW010 03/02 Q1028 TEMPO 2200 BCFG SCT002

VFR

3°C / 2°C

[Mehr]
Wind 40º 4kt
Sichtweite >10km
Wetter shallow Fog
Wolken Vertical Visibility of 0ft.
Druck 1027
Änderung Temporary: Visibility 1200. patches Fog . Broken Clouds 200ft.
Roh LZIB 190430Z 04004KT 9999 MIFG NSC 03/02 Q1027 TEMPO 1200 BCFG BKN002

VFR

3°C / 3°C

[Mehr]
Wind 360º 2kt
Sichtweite >10km
Wetter patches Fog
Wolken Vertical Visibility of 0ft.
Druck 1028
Änderung Temporary: Visibility 1200. patches Fog . Broken Clouds 200ft.
Roh LZIB 190400Z 36002KT 9999 2500E BCFG NSC 03/03 Q1028 TEMPO 1200 BCFG BKN002

VFR

3°C / 2°C

[Mehr]
Wind 70º 3kt
Sichtweite >10km
Wetter patches Fog
Wolken Vertical Visibility of 0ft.
Druck 1028
Änderung -
Roh LZIB 190330Z 07003KT 9999 2400E BCFG NSC 03/02 Q1028

VFR

3°C / 2°C

[Mehr]
Wind 90º 3kt
Sichtweite >10km
Wetter patches Fog
Wolken Vertical Visibility of 0ft.
Druck 1028
Änderung -
Roh LZIB 190300Z 09003KT 9999 1800E BCFG NSC 03/02 Q1028

VFR

3°C / 2°C

[Mehr]
Wind 80º 2kt
Sichtweite >10km
Wetter -
Wolken Clouds and Visibility OK
Druck 1028
Änderung -
Roh LZIB 190230Z 08002KT CAVOK 03/02 Q1028

VFR

4°C / 3°C

[Mehr]
Wind 10º 2kt
Sichtweite >10km
Wetter -
Wolken Clouds and Visibility OK
Druck 1028
Änderung -
Roh LZIB 190200Z 01002KT CAVOK 04/03 Q1028

VFR

4°C / 3°C

[Mehr]
Wind variable 0kt
Sichtweite >10km
Wetter -
Wolken Clouds and Visibility OK
Druck 1028
Änderung -
Roh LZIB 190130Z 00000KT CAVOK 04/03 Q1028

VFR

4°C / 3°C

[Mehr]
Wind 10º 5kt
Sichtweite >10km
Wetter -
Wolken Clouds and Visibility OK
Druck 1028
Änderung -
Roh LZIB 190100Z 01005KT CAVOK 04/03 Q1028

TAF für Ivanka pri Dunaji (LZIB)

From till


From till Wind 30º 7kt. Visibility 10km or more. Nil Significant Cloud.
Temporarly from till Wind 140º 7kt.
Becoming from till Wind 130º 14kt. Visibility 10km or more. Nil Significant Cloud.

Roh: TAF LZIB 191100Z 1912/2012 03007KT CAVOK TEMPO 1912/1916 14007KT BECMG 2010/2012 13014KT

Aktuelle Satelliten- und Regenbilder für Ivanka pri Dunaji, Slowakei (Slowakische Republik)

Die Standortmarkierung ist platziert auf Ivanka pri Dunaji. [Mehr]

Das Echtzeit-Satellitenbild kombiniert sichtbares Licht während des Tages mit Infrarotstrahlung während der Nacht. Nachts ist das Bild nicht dunkel, da Infrarotstrahlung Temperaturunterschiede erkennen kann. Leider sind niedrige Wolken und Nebel nur schwer von den Bodentemperaturen zu unterscheiden und können daher nachts fast unsichtbar sein. Meteosat-Satellitenbilder für Europa werden alle 5 Minuten in Echtzeit aktualisiert. Die Bilder GOES-16 / GOES-17 (Nord- und Südamerika) und Himawari (Asien) werden alle 10 Minuten aktualisiert.

Niederschläge werden von Radar und Satelliten berechnet. Nachts sind die Niederschlagsberechnungen durch die Satelliten weniger genau als tagsüber. Orangene Kreuze markieren Stellen, an denen Blitze aufgenommen wurden (über Europa).

Copyright 2021 EUMETSAT / meteoblue. Blitzdaten zur Verfügung gestellt von nowcast.

Radar- und Niederschlags-Nowcast für Ivanka pri Dunaji

Nieselregen
Leicht
Moderat
Stark
Sehr schwer
Hagel

Die Ortsmarkierung zeigt auf Ivanka pri Dunaji. Diese Animation zeigt das Niederschlagsradar der letzten Stunde, sowie eine 1h Vorhersage. Nieselregen und leichter Schneefall können für das Radar unsichtbar sein. Die Niederschlagsintensität ist farbcodiert von Hellblau bis Orange.